Terminal Aerodrome Forecast
Issued by NWS North Platte, NE

Home | Current Version | Previous Version | Text Only | Print | Product List | Glossary On
Versions: 1 2 3 4 5 6 7 8 9 10 11 12 13 14 15 16 17 18 19 20 21 22 23
000
FTUS43 KLBF 212300
TAFLBF
TAF
KLBF 212336Z 2200/2224 05007KT P6SM SCT120
     FM221000 12006KT P6SM BKN090
     FM221600 17012G19KT P6SM OVC090
     FM221900 17017G25KT P6SM OVC070=

USA.gov is the U.S. government's official web portal to all federal, state and local government web resources and services.